sensor_id;sensor_type;location;lat;lon;timestamp;P1;durP1;ratioP1;P2;durP2;ratioP2
11010;SDS011;5558;42.702;23.178;2023-09-19T00:02:17;9.20;;;8.40;;
11010;SDS011;5558;42.702;23.178;2023-09-19T00:04:44;8.40;;;7.70;;
11010;SDS011;5558;42.702;23.178;2023-09-19T00:07:11;8.80;;;8.00;;
11010;SDS011;5558;42.702;23.178;2023-09-19T00:09:38;8.63;;;7.93;;
11010;SDS011;5558;42.702;23.178;2023-09-19T00:12:06;8.17;;;7.37;;
11010;SDS011;5558;42.702;23.178;2023-09-19T00:14:34;8.07;;;7.37;;
11010;SDS011;5558;42.702;23.178;2023-09-19T00:17:03;7.97;;;7.27;;
11010;SDS011;5558;42.702;23.178;2023-09-19T00:19:33;8.13;;;7.43;;
11010;SDS011;5558;42.702;23.178;2023-09-19T00:21:59;8.17;;;7.47;;
11010;SDS011;5558;42.702;23.178;2023-09-19T00:24:28;8.43;;;7.63;;
11010;SDS011;5558;42.702;23.178;2023-09-19T00:26:54;8.37;;;7.63;;
11010;SDS011;5558;42.702;23.178;2023-09-19T00:29:21;8.50;;;7.80;;
11010;SDS011;5558;42.702;23.178;2023-09-19T00:31:48;9.03;;;8.13;;
11010;SDS011;5558;42.702;23.178;2023-09-19T00:34:16;8.33;;;7.53;;
11010;SDS011;5558;42.702;23.178;2023-09-19T00:36:43;7.87;;;7.23;;
11010;SDS011;5558;42.702;23.178;2023-09-19T00:39:10;7.90;;;7.20;;
11010;SDS011;5558;42.702;23.178;2023-09-19T00:41:37;8.17;;;7.47;;
11010;SDS011;5558;42.702;23.178;2023-09-19T00:44:03;8.20;;;7.40;;
11010;SDS011;5558;42.702;23.178;2023-09-19T00:46:31;8.27;;;7.57;;
11010;SDS011;5558;42.702;23.178;2023-09-19T00:48:58;7.90;;;7.20;;
11010;SDS011;5558;42.702;23.178;2023-09-19T00:51:27;7.97;;;7.20;;
11010;SDS011;5558;42.702;23.178;2023-09-19T00:53:54;7.70;;;7.00;;
11010;SDS011;5558;42.702;23.178;2023-09-19T00:56:21;7.60;;;6.90;;
11010;SDS011;5558;42.702;23.178;2023-09-19T00:58:48;7.03;;;6.43;;
11010;SDS011;5558;42.702;23.178;2023-09-19T01:01:15;7.90;;;6.63;;
11010;SDS011;5558;42.702;23.178;2023-09-19T01:03:42;7.07;;;6.47;;
11010;SDS011;5558;42.702;23.178;2023-09-19T01:06:11;7.23;;;6.53;;
11010;SDS011;5558;42.702;23.178;2023-09-19T01:08:39;7.50;;;6.80;;
11010;SDS011;5558;42.702;23.178;2023-09-19T01:11:08;7.40;;;6.70;;
11010;SDS011;5558;42.702;23.178;2023-09-19T01:13:43;7.13;;;6.43;;
11010;SDS011;5558;42.702;23.178;2023-09-19T01:16:19;8.10;;;6.70;;
11010;SDS011;5558;42.702;23.178;2023-09-19T01:18:55;6.90;;;6.20;;
11010;SDS011;5558;42.702;23.178;2023-09-19T01:21:29;7.13;;;6.40;;
11010;SDS011;5558;42.702;23.178;2023-09-19T01:24:21;6.90;;;6.27;;
11010;SDS011;5558;42.702;23.178;2023-09-19T01:27:17;7.63;;;6.93;;
11010;SDS011;5558;42.702;23.178;2023-09-19T01:30:07;7.90;;;7.20;;
11010;SDS011;5558;42.702;23.178;2023-09-19T01:32:36;7.13;;;6.43;;
11010;SDS011;5558;42.702;23.178;2023-09-19T01:35:06;7.57;;;6.97;;
11010;SDS011;5558;42.702;23.178;2023-09-19T01:37:38;8.10;;;7.40;;
11010;SDS011;5558;42.702;23.178;2023-09-19T01:40:08;8.40;;;7.60;;
11010;SDS011;5558;42.702;23.178;2023-09-19T01:42:43;8.50;;;7.60;;
11010;SDS011;5558;42.702;23.178;2023-09-19T01:45:16;7.90;;;7.20;;
11010;SDS011;5558;42.702;23.178;2023-09-19T01:47:52;7.90;;;7.13;;
11010;SDS011;5558;42.702;23.178;2023-09-19T01:50:25;8.27;;;7.47;;
11010;SDS011;5558;42.702;23.178;2023-09-19T01:52:57;8.20;;;7.40;;
11010;SDS011;5558;42.702;23.178;2023-09-19T01:55:29;7.73;;;7.03;;
11010;SDS011;5558;42.702;23.178;2023-09-19T01:58:01;8.43;;;7.20;;
11010;SDS011;5558;42.702;23.178;2023-09-19T02:00:36;8.43;;;7.53;;
11010;SDS011;5558;42.702;23.178;2023-09-19T02:03:06;8.03;;;7.23;;
11010;SDS011;5558;42.702;23.178;2023-09-19T02:05:35;8.23;;;7.43;;
11010;SDS011;5558;42.702;23.178;2023-09-19T02:08:02;8.43;;;7.53;;
11010;SDS011;5558;42.702;23.178;2023-09-19T02:10:29;8.27;;;7.50;;
11010;SDS011;5558;42.702;23.178;2023-09-19T02:12:56;8.10;;;7.30;;
11010;SDS011;5558;42.702;23.178;2023-09-19T02:15:24;8.37;;;7.57;;
11010;SDS011;5558;42.702;23.178;2023-09-19T02:17:52;8.10;;;7.30;;
11010;SDS011;5558;42.702;23.178;2023-09-19T02:20:18;8.57;;;7.70;;
11010;SDS011;5558;42.702;23.178;2023-09-19T02:22:46;8.43;;;7.53;;
11010;SDS011;5558;42.702;23.178;2023-09-19T02:25:15;7.27;;;6.60;;
11010;SDS011;5558;42.702;23.178;2023-09-19T02:27:43;7.90;;;7.07;;
11010;SDS011;5558;42.702;23.178;2023-09-19T02:30:10;7.60;;;6.90;;
11010;SDS011;5558;42.702;23.178;2023-09-19T02:32:40;7.23;;;6.57;;
11010;SDS011;5558;42.702;23.178;2023-09-19T02:35:09;8.63;;;7.83;;
11010;SDS011;5558;42.702;23.178;2023-09-19T02:37:36;7.67;;;7.07;;
11010;SDS011;5558;42.702;23.178;2023-09-19T02:40:03;7.60;;;6.90;;
11010;SDS011;5558;42.702;23.178;2023-09-19T02:42:43;7.53;;;6.80;;
11010;SDS011;5558;42.702;23.178;2023-09-19T02:45:13;7.90;;;7.10;;
11010;SDS011;5558;42.702;23.178;2023-09-19T02:47:40;7.90;;;7.10;;
11010;SDS011;5558;42.702;23.178;2023-09-19T02:50:09;7.70;;;7.00;;
11010;SDS011;5558;42.702;23.178;2023-09-19T02:52:37;8.63;;;7.83;;
11010;SDS011;5558;42.702;23.178;2023-09-19T02:55:04;8.27;;;7.47;;
11010;SDS011;5558;42.702;23.178;2023-09-19T02:57:34;8.00;;;7.30;;
11010;SDS011;5558;42.702;23.178;2023-09-19T03:00:06;8.77;;;7.97;;
11010;SDS011;5558;42.702;23.178;2023-09-19T03:02:35;8.27;;;7.57;;
11010;SDS011;5558;42.702;23.178;2023-09-19T03:05:03;8.90;;;8.10;;
11010;SDS011;5558;42.702;23.178;2023-09-19T03:07:32;8.90;;;8.00;;
11010;SDS011;5558;42.702;23.178;2023-09-19T03:09:59;8.30;;;7.50;;
11010;SDS011;5558;42.702;23.178;2023-09-19T03:12:26;8.37;;;7.57;;
11010;SDS011;5558;42.702;23.178;2023-09-19T03:14:52;8.63;;;7.80;;
11010;SDS011;5558;42.702;23.178;2023-09-19T03:17:20;8.57;;;7.77;;
11010;SDS011;5558;42.702;23.178;2023-09-19T03:19:47;9.07;;;8.23;;
11010;SDS011;5558;42.702;23.178;2023-09-19T03:22:14;9.10;;;8.20;;
11010;SDS011;5558;42.702;23.178;2023-09-19T03:24:42;8.30;;;7.57;;
11010;SDS011;5558;42.702;23.178;2023-09-19T03:27:10;9.23;;;8.33;;
11010;SDS011;5558;42.702;23.178;2023-09-19T03:29:41;9.00;;;8.07;;
11010;SDS011;5558;42.702;23.178;2023-09-19T03:32:07;8.60;;;7.80;;
11010;SDS011;5558;42.702;23.178;2023-09-19T03:34:35;8.70;;;7.53;;
11010;SDS011;5558;42.702;23.178;2023-09-19T03:37:03;8.47;;;7.67;;
11010;SDS011;5558;42.702;23.178;2023-09-19T03:39:30;8.60;;;7.80;;
11010;SDS011;5558;42.702;23.178;2023-09-19T03:41:58;9.10;;;8.30;;
11010;SDS011;5558;42.702;23.178;2023-09-19T03:44:25;8.80;;;7.87;;
11010;SDS011;5558;42.702;23.178;2023-09-19T03:46:51;8.30;;;7.50;;
11010;SDS011;5558;42.702;23.178;2023-09-19T03:49:20;7.80;;;7.10;;
11010;SDS011;5558;42.702;23.178;2023-09-19T03:51:47;7.73;;;7.03;;
11010;SDS011;5558;42.702;23.178;2023-09-19T03:54:14;8.17;;;7.37;;
11010;SDS011;5558;42.702;23.178;2023-09-19T03:56:41;8.60;;;7.80;;
11010;SDS011;5558;42.702;23.178;2023-09-19T03:59:09;8.93;;;8.03;;
11010;SDS011;5558;42.702;23.178;2023-09-19T04:01:37;8.33;;;7.53;;
11010;SDS011;5558;42.702;23.178;2023-09-19T04:04:04;9.00;;;8.10;;
11010;SDS011;5558;42.702;23.178;2023-09-19T04:06:34;8.50;;;7.70;;
11010;SDS011;5558;42.702;23.178;2023-09-19T04:09:01;8.87;;;8.07;;
11010;SDS011;5558;42.702;23.178;2023-09-19T04:11:28;8.57;;;7.77;;
11010;SDS011;5558;42.702;23.178;2023-09-19T04:13:55;8.90;;;8.00;;
11010;SDS011;5558;42.702;23.178;2023-09-19T04:16:23;8.90;;;8.10;;
11010;SDS011;5558;42.702;23.178;2023-09-19T04:18:50;8.63;;;7.77;;
11010;SDS011;5558;42.702;23.178;2023-09-19T04:21:16;7.87;;;7.07;;
11010;SDS011;5558;42.702;23.178;2023-09-19T04:23:44;7.43;;;6.73;;
11010;SDS011;5558;42.702;23.178;2023-09-19T04:26:11;7.90;;;6.43;;
11010;SDS011;5558;42.702;23.178;2023-09-19T04:28:38;7.90;;;7.00;;
11010;SDS011;5558;42.702;23.178;2023-09-19T04:31:06;6.60;;;5.90;;
11010;SDS011;5558;42.702;23.178;2023-09-19T04:33:38;6.20;;;5.60;;
11010;SDS011;5558;42.702;23.178;2023-09-19T04:36:04;5.67;;;5.03;;
11010;SDS011;5558;42.702;23.178;2023-09-19T04:38:32;5.43;;;4.90;;
11010;SDS011;5558;42.702;23.178;2023-09-19T04:40:59;5.57;;;4.47;;
11010;SDS011;5558;42.702;23.178;2023-09-19T04:43:26;4.50;;;4.10;;
11010;SDS011;5558;42.702;23.178;2023-09-19T04:45:53;4.60;;;4.20;;
11010;SDS011;5558;42.702;23.178;2023-09-19T04:48:21;4.77;;;4.30;;
11010;SDS011;5558;42.702;23.178;2023-09-19T04:50:51;5.17;;;4.67;;
11010;SDS011;5558;42.702;23.178;2023-09-19T04:53:18;5.10;;;4.60;;
11010;SDS011;5558;42.702;23.178;2023-09-19T04:55:49;5.47;;;4.03;;
11010;SDS011;5558;42.702;23.178;2023-09-19T04:58:17;6.07;;;4.17;;
11010;SDS011;5558;42.702;23.178;2023-09-19T05:00:44;6.57;;;3.93;;
11010;SDS011;5558;42.702;23.178;2023-09-19T05:03:11;4.27;;;3.87;;
11010;SDS011;5558;42.702;23.178;2023-09-19T05:05:37;4.40;;;4.00;;
11010;SDS011;5558;42.702;23.178;2023-09-19T05:08:07;4.37;;;3.97;;
11010;SDS011;5558;42.702;23.178;2023-09-19T05:10:35;4.03;;;3.63;;
11010;SDS011;5558;42.702;23.178;2023-09-19T05:13:03;6.10;;;3.97;;
11010;SDS011;5558;42.702;23.178;2023-09-19T05:15:29;4.33;;;3.60;;
11010;SDS011;5558;42.702;23.178;2023-09-19T05:17:57;4.73;;;3.70;;
11010;SDS011;5558;42.702;23.178;2023-09-19T05:20:23;5.00;;;4.50;;
11010;SDS011;5558;42.702;23.178;2023-09-19T05:22:57;4.50;;;4.10;;
11010;SDS011;5558;42.702;23.178;2023-09-19T05:25:28;4.30;;;3.87;;
11010;SDS011;5558;42.702;23.178;2023-09-19T05:27:56;4.20;;;3.80;;
11010;SDS011;5558;42.702;23.178;2023-09-19T05:30:24;5.23;;;4.13;;
11010;SDS011;5558;42.702;23.178;2023-09-19T05:32:52;4.17;;;3.77;;
11010;SDS011;5558;42.702;23.178;2023-09-19T05:35:19;4.80;;;4.40;;
11010;SDS011;5558;42.702;23.178;2023-09-19T05:37:46;5.20;;;4.20;;
11010;SDS011;5558;42.702;23.178;2023-09-19T05:40:16;4.93;;;4.43;;
11010;SDS011;5558;42.702;23.178;2023-09-19T05:42:44;4.57;;;4.17;;
11010;SDS011;5558;42.702;23.178;2023-09-19T05:45:11;6.40;;;4.57;;
11010;SDS011;5558;42.702;23.178;2023-09-19T05:47:37;4.80;;;4.37;;
11010;SDS011;5558;42.702;23.178;2023-09-19T05:50:05;4.80;;;4.40;;
11010;SDS011;5558;42.702;23.178;2023-09-19T05:52:33;6.00;;;5.07;;
11010;SDS011;5558;42.702;23.178;2023-09-19T05:54:59;6.40;;;4.60;;
11010;SDS011;5558;42.702;23.178;2023-09-19T05:57:26;5.50;;;4.70;;
11010;SDS011;5558;42.702;23.178;2023-09-19T05:59:57;6.90;;;4.40;;
11010;SDS011;5558;42.702;23.178;2023-09-19T06:02:23;6.47;;;4.80;;
11010;SDS011;5558;42.702;23.178;2023-09-19T06:04:52;5.30;;;4.80;;
11010;SDS011;5558;42.702;23.178;2023-09-19T06:07:20;5.10;;;4.60;;
11010;SDS011;5558;42.702;23.178;2023-09-19T06:09:47;5.17;;;4.47;;
11010;SDS011;5558;42.702;23.178;2023-09-19T06:12:13;4.97;;;4.47;;
11010;SDS011;5558;42.702;23.178;2023-09-19T06:14:40;5.00;;;4.43;;
11010;SDS011;5558;42.702;23.178;2023-09-19T06:17:08;4.53;;;4.13;;
11010;SDS011;5558;42.702;23.178;2023-09-19T06:19:35;4.83;;;4.40;;
11010;SDS011;5558;42.702;23.178;2023-09-19T06:22:02;5.00;;;4.30;;
11010;SDS011;5558;42.702;23.178;2023-09-19T06:24:29;5.13;;;4.63;;
11010;SDS011;5558;42.702;23.178;2023-09-19T06:26:56;5.23;;;4.40;;
11010;SDS011;5558;42.702;23.178;2023-09-19T06:29:26;5.63;;;5.03;;
11010;SDS011;5558;42.702;23.178;2023-09-19T06:31:52;4.83;;;4.30;;
11010;SDS011;5558;42.702;23.178;2023-09-19T06:34:21;4.80;;;4.30;;
11010;SDS011;5558;42.702;23.178;2023-09-19T06:36:47;4.80;;;4.30;;
11010;SDS011;5558;42.702;23.178;2023-09-19T06:39:14;5.30;;;4.80;;
11010;SDS011;5558;42.702;23.178;2023-09-19T06:41:41;6.03;;;5.00;;
11010;SDS011;5558;42.702;23.178;2023-09-19T06:44:08;6.10;;;5.50;;
11010;SDS011;5558;42.702;23.178;2023-09-19T06:46:36;5.40;;;4.90;;
11010;SDS011;5558;42.702;23.178;2023-09-19T06:49:04;5.67;;;5.17;;
11010;SDS011;5558;42.702;23.178;2023-09-19T06:51:32;7.47;;;5.63;;
11010;SDS011;5558;42.702;23.178;2023-09-19T06:54:01;6.73;;;5.83;;
11010;SDS011;5558;42.702;23.178;2023-09-19T06:56:30;6.83;;;6.10;;
11010;SDS011;5558;42.702;23.178;2023-09-19T06:58:58;7.47;;;6.47;;
11010;SDS011;5558;42.702;23.178;2023-09-19T07:01:24;6.90;;;6.20;;
11010;SDS011;5558;42.702;23.178;2023-09-19T07:03:51;6.67;;;5.97;;
11010;SDS011;5558;42.702;23.178;2023-09-19T07:06:18;7.73;;;6.10;;
11010;SDS011;5558;42.702;23.178;2023-09-19T07:08:46;6.13;;;5.53;;
11010;SDS011;5558;42.702;23.178;2023-09-19T07:11:14;6.40;;;5.80;;
11010;SDS011;5558;42.702;23.178;2023-09-19T07:13:41;7.10;;;6.40;;
11010;SDS011;5558;42.702;23.178;2023-09-19T07:16:08;7.23;;;6.07;;
11010;SDS011;5558;42.702;23.178;2023-09-19T07:18:38;6.87;;;5.90;;
11010;SDS011;5558;42.702;23.178;2023-09-19T07:21:05;10.67;;;6.23;;
11010;SDS011;5558;42.702;23.178;2023-09-19T07:23:32;7.77;;;5.90;;
11010;SDS011;5558;42.702;23.178;2023-09-19T07:26:01;6.47;;;5.77;;
11010;SDS011;5558;42.702;23.178;2023-09-19T07:28:30;6.30;;;5.70;;
11010;SDS011;5558;42.702;23.178;2023-09-19T07:31:01;7.67;;;5.87;;
11010;SDS011;5558;42.702;23.178;2023-09-19T07:33:28;6.77;;;5.77;;
11010;SDS011;5558;42.702;23.178;2023-09-19T07:35:55;6.73;;;6.07;;
11010;SDS011;5558;42.702;23.178;2023-09-19T07:38:21;7.20;;;6.47;;
11010;SDS011;5558;42.702;23.178;2023-09-19T07:40:48;8.30;;;5.87;;
11010;SDS011;5558;42.702;23.178;2023-09-19T07:43:16;7.97;;;6.40;;
11010;SDS011;5558;42.702;23.178;2023-09-19T07:45:43;6.83;;;5.90;;
11010;SDS011;5558;42.702;23.178;2023-09-19T07:48:10;7.20;;;5.87;;
11010;SDS011;5558;42.702;23.178;2023-09-19T07:50:39;8.13;;;6.10;;
11010;SDS011;5558;42.702;23.178;2023-09-19T07:53:08;7.23;;;6.00;;
11010;SDS011;5558;42.702;23.178;2023-09-19T07:55:38;6.73;;;6.00;;
11010;SDS011;5558;42.702;23.178;2023-09-19T07:58:06;7.97;;;6.87;;
11010;SDS011;5558;42.702;23.178;2023-09-19T08:00:34;6.87;;;5.63;;
11010;SDS011;5558;42.702;23.178;2023-09-19T08:03:01;7.50;;;6.53;;
11010;SDS011;5558;42.702;23.178;2023-09-19T08:05:29;6.90;;;6.20;;
11010;SDS011;5558;42.702;23.178;2023-09-19T08:07:55;8.33;;;5.80;;
11010;SDS011;5558;42.702;23.178;2023-09-19T08:10:24;7.13;;;6.20;;
11010;SDS011;5558;42.702;23.178;2023-09-19T08:12:52;7.67;;;6.50;;
11010;SDS011;5558;42.702;23.178;2023-09-19T08:15:23;7.00;;;6.20;;
11010;SDS011;5558;42.702;23.178;2023-09-19T08:17:51;7.00;;;5.93;;
11010;SDS011;5558;42.702;23.178;2023-09-19T08:20:18;6.37;;;5.77;;
11010;SDS011;5558;42.702;23.178;2023-09-19T08:22:46;5.90;;;5.40;;
11010;SDS011;5558;42.702;23.178;2023-09-19T08:25:14;15.53;;;7.20;;
11010;SDS011;5558;42.702;23.178;2023-09-19T08:27:42;6.77;;;5.70;;
11010;SDS011;5558;42.702;23.178;2023-09-19T08:30:12;8.37;;;5.97;;
11010;SDS011;5558;42.702;23.178;2023-09-19T08:32:39;6.83;;;5.50;;
11010;SDS011;5558;42.702;23.178;2023-09-19T08:35:09;6.43;;;5.57;;
11010;SDS011;5558;42.702;23.178;2023-09-19T08:37:36;6.30;;;5.57;;
11010;SDS011;5558;42.702;23.178;2023-09-19T08:40:03;5.40;;;4.90;;
11010;SDS011;5558;42.702;23.178;2023-09-19T08:42:46;6.93;;;5.47;;
11010;SDS011;5558;42.702;23.178;2023-09-19T08:45:13;6.03;;;5.37;;
11010;SDS011;5558;42.702;23.178;2023-09-19T08:47:41;7.03;;;5.03;;
11010;SDS011;5558;42.702;23.178;2023-09-19T08:50:15;5.70;;;5.20;;
11010;SDS011;5558;42.702;23.178;2023-09-19T08:52:50;7.67;;;5.30;;
11010;SDS011;5558;42.702;23.178;2023-09-19T08:55:19;7.83;;;5.97;;
11010;SDS011;5558;42.702;23.178;2023-09-19T08:57:54;6.77;;;5.40;;
11010;SDS011;5558;42.702;23.178;2023-09-19T09:00:27;5.80;;;5.13;;
11010;SDS011;5558;42.702;23.178;2023-09-19T09:02:55;5.70;;;5.10;;
11010;SDS011;5558;42.702;23.178;2023-09-19T09:05:24;5.90;;;5.27;;
11010;SDS011;5558;42.702;23.178;2023-09-19T09:07:52;7.23;;;5.53;;
11010;SDS011;5558;42.702;23.178;2023-09-19T09:10:21;5.90;;;5.33;;
11010;SDS011;5558;42.702;23.178;2023-09-19T09:12:48;6.17;;;5.40;;
11010;SDS011;5558;42.702;23.178;2023-09-19T09:15:18;8.20;;;5.33;;
11010;SDS011;5558;42.702;23.178;2023-09-19T09:17:46;6.00;;;5.40;;
11010;SDS011;5558;42.702;23.178;2023-09-19T09:20:15;6.10;;;5.50;;
11010;SDS011;5558;42.702;23.178;2023-09-19T09:22:51;5.83;;;5.20;;
11010;SDS011;5558;42.702;23.178;2023-09-19T09:25:19;6.27;;;5.37;;
11010;SDS011;5558;42.702;23.178;2023-09-19T09:27:58;5.90;;;5.30;;
11010;SDS011;5558;42.702;23.178;2023-09-19T09:30:33;6.70;;;5.23;;
11010;SDS011;5558;42.702;23.178;2023-09-19T09:33:09;8.93;;;5.43;;
11010;SDS011;5558;42.702;23.178;2023-09-19T09:35:37;6.87;;;4.90;;
11010;SDS011;5558;42.702;23.178;2023-09-19T09:38:14;6.50;;;5.30;;
11010;SDS011;5558;42.702;23.178;2023-09-19T09:40:47;6.07;;;4.63;;
11010;SDS011;5558;42.702;23.178;2023-09-19T09:43:27;7.17;;;4.70;;
11010;SDS011;5558;42.702;23.178;2023-09-19T09:46:07;5.57;;;4.40;;
11010;SDS011;5558;42.702;23.178;2023-09-19T09:48:57;5.30;;;4.77;;
11010;SDS011;5558;42.702;23.178;2023-09-19T09:51:41;6.10;;;4.70;;
11010;SDS011;5558;42.702;23.178;2023-09-19T09:54:14;7.90;;;4.83;;
11010;SDS011;5558;42.702;23.178;2023-09-19T09:56:54;6.07;;;4.83;;
11010;SDS011;5558;42.702;23.178;2023-09-19T10:02:13;6.97;;;5.00;;
11010;SDS011;5558;42.702;23.178;2023-09-19T10:04:45;5.40;;;4.50;;
11010;SDS011;5558;42.702;23.178;2023-09-19T10:07:26;7.57;;;4.73;;
11010;SDS011;5558;42.702;23.178;2023-09-19T10:09:58;5.60;;;4.73;;
11010;SDS011;5558;42.702;23.178;2023-09-19T10:12:35;5.93;;;4.43;;
11010;SDS011;5558;42.702;23.178;2023-09-19T10:15:05;5.60;;;4.50;;
11010;SDS011;5558;42.702;23.178;2023-09-19T10:17:36;5.70;;;4.50;;
11010;SDS011;5558;42.702;23.178;2023-09-19T10:20:03;5.17;;;4.57;;
11010;SDS011;5558;42.702;23.178;2023-09-19T10:22:45;8.30;;;4.40;;
11010;SDS011;5558;42.702;23.178;2023-09-19T10:25:23;5.23;;;4.60;;
11010;SDS011;5558;42.702;23.178;2023-09-19T10:27:54;5.87;;;5.13;;
11010;SDS011;5558;42.702;23.178;2023-09-19T10:30:22;6.20;;;5.07;;
11010;SDS011;5558;42.702;23.178;2023-09-19T10:32:53;7.93;;;5.03;;
11010;SDS011;5558;42.702;23.178;2023-09-19T10:35:24;6.43;;;4.63;;
11010;SDS011;5558;42.702;23.178;2023-09-19T10:37:53;5.40;;;4.90;;
11010;SDS011;5558;42.702;23.178;2023-09-19T10:40:21;7.33;;;5.10;;
11010;SDS011;5558;42.702;23.178;2023-09-19T10:42:53;5.93;;;5.10;;
11010;SDS011;5558;42.702;23.178;2023-09-19T10:45:22;7.47;;;4.90;;
11010;SDS011;5558;42.702;23.178;2023-09-19T10:47:51;6.50;;;5.37;;
11010;SDS011;5558;42.702;23.178;2023-09-19T10:50:19;5.80;;;5.30;;
11010;SDS011;5558;42.702;23.178;2023-09-19T10:52:48;6.07;;;4.90;;
11010;SDS011;5558;42.702;23.178;2023-09-19T10:55:15;6.70;;;4.90;;
11010;SDS011;5558;42.702;23.178;2023-09-19T10:57:44;7.67;;;4.50;;
11010;SDS011;5558;42.702;23.178;2023-09-19T11:00:13;5.87;;;4.23;;
11010;SDS011;5558;42.702;23.178;2023-09-19T11:06:00;6.13;;;4.67;;
11010;SDS011;5558;42.702;23.178;2023-09-19T11:08:30;6.17;;;4.80;;
11010;SDS011;5558;42.702;23.178;2023-09-19T11:10:57;7.20;;;5.43;;
11010;SDS011;5558;42.702;23.178;2023-09-19T11:13:24;6.50;;;4.60;;
11010;SDS011;5558;42.702;23.178;2023-09-19T11:18:52;6.20;;;5.27;;
11010;SDS011;5558;42.702;23.178;2023-09-19T11:21:38;6.77;;;5.03;;
11010;SDS011;5558;42.702;23.178;2023-09-19T11:24:30;6.20;;;5.13;;
11010;SDS011;5558;42.702;23.178;2023-09-19T11:29:40;5.63;;;5.00;;
11010;SDS011;5558;42.702;23.178;2023-09-19T11:32:08;5.43;;;4.57;;
11010;SDS011;5558;42.702;23.178;2023-09-19T11:40:32;5.40;;;4.90;;
11010;SDS011;5558;42.702;23.178;2023-09-19T11:42:59;6.57;;;4.80;;
11010;SDS011;5558;42.702;23.178;2023-09-19T11:46:01;6.07;;;5.33;;
11010;SDS011;5558;42.702;23.178;2023-09-19T11:48:33;7.17;;;5.10;;
11010;SDS011;5558;42.702;23.178;2023-09-19T11:51:08;6.67;;;4.90;;
11010;SDS011;5558;42.702;23.178;2023-09-19T11:53:47;7.30;;;5.40;;
11010;SDS011;5558;42.702;23.178;2023-09-19T11:56:15;7.50;;;5.67;;
11010;SDS011;5558;42.702;23.178;2023-09-19T11:58:45;5.77;;;5.13;;
11010;SDS011;5558;42.702;23.178;2023-09-19T12:01:14;9.17;;;5.50;;
11010;SDS011;5558;42.702;23.178;2023-09-19T12:03:47;5.90;;;5.17;;
11010;SDS011;5558;42.702;23.178;2023-09-19T12:06:19;7.90;;;5.20;;
11010;SDS011;5558;42.702;23.178;2023-09-19T12:08:47;6.23;;;5.10;;
11010;SDS011;5558;42.702;23.178;2023-09-19T12:11:15;6.97;;;5.00;;
11010;SDS011;5558;42.702;23.178;2023-09-19T12:13:43;6.63;;;4.77;;
11010;SDS011;5558;42.702;23.178;2023-09-19T12:16:12;5.27;;;4.77;;
11010;SDS011;5558;42.702;23.178;2023-09-19T12:18:41;7.27;;;4.70;;
11010;SDS011;5558;42.702;23.178;2023-09-19T12:21:22;6.73;;;5.10;;
11010;SDS011;5558;42.702;23.178;2023-09-19T12:23:56;7.33;;;5.20;;
11010;SDS011;5558;42.702;23.178;2023-09-19T12:26:26;6.60;;;5.00;;
11010;SDS011;5558;42.702;23.178;2023-09-19T12:28:53;6.57;;;5.00;;
11010;SDS011;5558;42.702;23.178;2023-09-19T12:31:21;7.37;;;5.00;;
11010;SDS011;5558;42.702;23.178;2023-09-19T12:33:52;5.53;;;4.57;;
11010;SDS011;5558;42.702;23.178;2023-09-19T12:36:21;6.20;;;4.80;;
11010;SDS011;5558;42.702;23.178;2023-09-19T12:38:55;6.30;;;4.80;;
11010;SDS011;5558;42.702;23.178;2023-09-19T12:41:24;5.80;;;4.93;;
11010;SDS011;5558;42.702;23.178;2023-09-19T12:43:51;6.87;;;4.63;;
11010;SDS011;5558;42.702;23.178;2023-09-19T12:46:19;5.37;;;4.80;;
11010;SDS011;5558;42.702;23.178;2023-09-19T12:48:51;4.80;;;4.40;;
11010;SDS011;5558;42.702;23.178;2023-09-19T12:51:43;6.60;;;4.70;;
11010;SDS011;5558;42.702;23.178;2023-09-19T12:54:11;5.13;;;4.73;;
11010;SDS011;5558;42.702;23.178;2023-09-19T12:56:40;4.67;;;4.17;;
11010;SDS011;5558;42.702;23.178;2023-09-19T12:59:09;5.60;;;4.20;;
11010;SDS011;5558;42.702;23.178;2023-09-19T13:01:38;5.17;;;4.47;;
11010;SDS011;5558;42.702;23.178;2023-09-19T13:04:10;6.13;;;4.70;;
11010;SDS011;5558;42.702;23.178;2023-09-19T13:06:40;6.40;;;4.70;;
11010;SDS011;5558;42.702;23.178;2023-09-19T13:09:10;6.73;;;4.50;;
11010;SDS011;5558;42.702;23.178;2023-09-19T13:11:38;5.20;;;4.60;;
11010;SDS011;5558;42.702;23.178;2023-09-19T13:14:14;5.20;;;4.70;;
11010;SDS011;5558;42.702;23.178;2023-09-19T13:16:55;5.00;;;4.50;;
11010;SDS011;5558;42.702;23.178;2023-09-19T13:19:40;5.90;;;4.33;;
11010;SDS011;5558;42.702;23.178;2023-09-19T13:25:05;5.40;;;4.30;;
11010;SDS011;5558;42.702;23.178;2023-09-19T13:27:38;5.07;;;4.30;;
11010;SDS011;5558;42.702;23.178;2023-09-19T13:30:06;5.10;;;4.53;;
11010;SDS011;5558;42.702;23.178;2023-09-19T13:32:33;5.30;;;4.40;;
11010;SDS011;5558;42.702;23.178;2023-09-19T13:35:00;5.50;;;4.53;;
11010;SDS011;5558;42.702;23.178;2023-09-19T13:37:27;4.90;;;4.33;;
11010;SDS011;5558;42.702;23.178;2023-09-19T13:39:54;6.47;;;4.30;;
11010;SDS011;5558;42.702;23.178;2023-09-19T13:42:22;5.07;;;4.33;;
11010;SDS011;5558;42.702;23.178;2023-09-19T13:44:50;4.40;;;4.00;;
11010;SDS011;5558;42.702;23.178;2023-09-19T13:47:18;5.63;;;4.23;;
11010;SDS011;5558;42.702;23.178;2023-09-19T13:49:49;6.57;;;4.33;;
11010;SDS011;5558;42.702;23.178;2023-09-19T13:52:17;4.87;;;4.37;;
11010;SDS011;5558;42.702;23.178;2023-09-19T13:54:44;5.60;;;4.40;;
11010;SDS011;5558;42.702;23.178;2023-09-19T13:57:11;4.87;;;4.30;;
11010;SDS011;5558;42.702;23.178;2023-09-19T13:59:39;6.23;;;4.40;;
11010;SDS011;5558;42.702;23.178;2023-09-19T14:02:06;5.57;;;4.23;;
11010;SDS011;5558;42.702;23.178;2023-09-19T14:04:32;5.00;;;4.27;;
11010;SDS011;5558;42.702;23.178;2023-09-19T14:07:00;5.13;;;4.10;;
11010;SDS011;5558;42.702;23.178;2023-09-19T14:09:27;5.97;;;4.23;;
11010;SDS011;5558;42.702;23.178;2023-09-19T14:11:54;7.90;;;4.20;;
11010;SDS011;5558;42.702;23.178;2023-09-19T14:14:21;5.10;;;4.50;;
11010;SDS011;5558;42.702;23.178;2023-09-19T14:16:49;4.83;;;4.37;;
11010;SDS011;5558;42.702;23.178;2023-09-19T14:19:17;7.50;;;4.53;;
11010;SDS011;5558;42.702;23.178;2023-09-19T14:21:44;5.07;;;4.00;;
11010;SDS011;5558;42.702;23.178;2023-09-19T14:24:10;5.03;;;4.10;;
11010;SDS011;5558;42.702;23.178;2023-09-19T14:26:42;5.13;;;3.90;;
11010;SDS011;5558;42.702;23.178;2023-09-19T14:29:09;5.47;;;4.40;;
11010;SDS011;5558;42.702;23.178;2023-09-19T14:31:36;5.23;;;4.10;;
11010;SDS011;5558;42.702;23.178;2023-09-19T14:34:06;4.60;;;4.07;;
11010;SDS011;5558;42.702;23.178;2023-09-19T14:36:35;5.63;;;4.07;;
11010;SDS011;5558;42.702;23.178;2023-09-19T14:39:03;6.50;;;4.13;;
11010;SDS011;5558;42.702;23.178;2023-09-19T14:41:30;4.30;;;3.77;;
11010;SDS011;5558;42.702;23.178;2023-09-19T14:43:57;6.77;;;4.37;;
11010;SDS011;5558;42.702;23.178;2023-09-19T14:46:23;4.43;;;4.03;;
11010;SDS011;5558;42.702;23.178;2023-09-19T14:48:50;5.73;;;4.20;;
11010;SDS011;5558;42.702;23.178;2023-09-19T14:51:18;4.33;;;3.80;;
11010;SDS011;5558;42.702;23.178;2023-09-19T14:53:46;4.83;;;4.10;;
11010;SDS011;5558;42.702;23.178;2023-09-19T14:56:13;4.63;;;4.10;;
11010;SDS011;5558;42.702;23.178;2023-09-19T14:58:43;6.73;;;4.30;;
11010;SDS011;5558;42.702;23.178;2023-09-19T15:01:10;4.50;;;4.10;;
11010;SDS011;5558;42.702;23.178;2023-09-19T15:03:38;5.47;;;4.10;;
11010;SDS011;5558;42.702;23.178;2023-09-19T15:06:06;5.33;;;4.10;;
11010;SDS011;5558;42.702;23.178;2023-09-19T15:08:36;4.63;;;4.13;;
11010;SDS011;5558;42.702;23.178;2023-09-19T15:11:03;4.40;;;4.00;;
11010;SDS011;5558;42.702;23.178;2023-09-19T15:13:30;5.03;;;4.10;;
11010;SDS011;5558;42.702;23.178;2023-09-19T15:16:00;4.83;;;3.83;;
11010;SDS011;5558;42.702;23.178;2023-09-19T15:18:27;5.53;;;4.20;;
11010;SDS011;5558;42.702;23.178;2023-09-19T15:20:55;4.77;;;3.90;;
11010;SDS011;5558;42.702;23.178;2023-09-19T15:23:21;4.97;;;4.47;;